Time;durP1;ratioP1;P1;durP2;ratioP2;P2;SDS_P1;SDS_P2;PMS_P1;PMS_P2;Temp;Humidity;BMP_temperature;BMP_pressure;BME280_temperature;BME280_humidity;BME280_pressure;Samples;Min_cycle;Max_cycle;Signal;HPM_P1;HPM_P2
2022/06/15 00:00:45;;;;;;;;;5.00;5.00;;;;;21.14;45.00;100980.91;5075719;27;45531;-62
2022/06/15 00:03:13;;;;;;;;;7.00;7.00;;;;;21.07;45.51;100968.94;5074311;28;46223;-63
2022/06/15 00:05:39;;;;;;;;;7.00;4.00;;;;;21.03;45.21;100964.84;5075260;27;45487;-65
2022/06/15 00:08:05;;;;;;;;;6.00;6.00;;;;;20.97;45.73;100973.53;5077059;27;45295;-62
2022/06/15 00:10:32;;;;;;;;;7.33;7.00;;;;;20.91;45.74;100972.25;5075072;27;45373;-60
2022/06/15 00:12:58;;;;;;;;;8.00;8.00;;;;;20.89;45.99;100965.28;5076391;27;45343;-64
2022/06/15 00:15:24;;;;;;;;;6.33;6.33;;;;;20.85;45.93;100974.69;5091831;27;45459;-66
2022/06/15 00:17:52;;;;;;;;;6.00;5.67;;;;;20.80;46.04;100966.13;5071898;27;45407;-64
2022/06/15 00:20:18;;;;;;;;;9.00;7.00;;;;;20.81;46.30;100973.25;5076608;27;45625;-62
2022/06/15 00:22:43;;;;;;;;;7.00;7.00;;;;;20.83;46.50;100973.94;5076263;27;45823;-60
2022/06/15 00:25:09;;;;;;;;;7.00;7.00;;;;;20.81;46.53;100968.69;5075508;27;45393;-63
2022/06/15 00:27:35;;;;;;;;;6.00;6.00;;;;;20.73;46.66;100975.81;5074085;28;45445;-64
2022/06/15 00:30:01;;;;;;;;;6.67;6.67;;;;;20.70;46.92;100967.97;5092131;27;45409;-65
2022/06/15 00:32:27;;;;;;;;;9.00;7.33;;;;;20.68;47.14;100972.69;5075428;27;46087;-67
2022/06/15 00:34:52;;;;;;;;;7.00;7.00;;;;;20.66;47.13;100969.25;5076335;28;45338;-63
2022/06/15 00:37:18;;;;;;;;;9.00;6.67;;;;;20.62;47.26;100974.09;5075521;27;45505;-65
2022/06/15 00:39:43;;;;;;;;;5.50;5.50;;;;;20.59;47.47;100969.00;5076366;27;45340;-64
2022/06/15 00:42:13;;;;;;;;;7.00;7.00;;;;;20.56;47.28;100975.50;5074645;27;45285;-65
2022/06/15 00:44:39;;;;;;;;;6.00;6.00;;;;;20.52;47.69;100979.50;5075394;27;45357;-63
2022/06/15 00:47:24;;;;;;;;;6.00;5.00;;;;;20.47;47.91;100987.19;5076652;27;45165;-65
2022/06/15 00:49:56;;;;;;;;;10.00;7.00;;;;;20.45;48.00;100972.97;5075570;28;45261;-65
2022/06/15 00:52:33;;;;;;;;;4.67;4.67;;;;;20.43;48.62;100980.31;5078887;27;46657;-61
2022/06/15 00:55:01;;;;;;;;;6.00;5.00;;;;;20.41;48.58;100982.28;5059146;28;45406;-60
2022/06/15 00:57:27;;;;;;;;;6.00;6.00;;;;;20.41;48.70;100982.28;5059250;28;45290;-61
2022/06/15 00:59:56;;;;;;;;;6.67;5.00;;;;;20.40;48.83;100977.88;5102729;27;45398;-66
2022/06/15 01:02:22;;;;;;;;;7.33;5.33;;;;;20.34;49.04;100975.75;5079365;27;46270;-62
2022/06/15 01:04:58;;;;;;;;;8.00;7.00;;;;;20.30;48.99;100974.31;5078268;27;45507;-61
2022/06/15 01:07:48;;;;;;;;;8.00;8.00;;;;;20.27;48.86;100978.16;5078439;27;45404;-60
2022/06/15 01:10:22;;;;;;;;;7.00;7.00;;;;;20.22;49.54;100982.25;5079768;27;45333;-59
2022/06/15 01:12:54;;;;;;;;;8.00;8.00;;;;;20.18;49.45;100979.00;5111943;27;46357;-63
2022/06/15 01:15:45;;;;;;;;;7.67;6.33;;;;;20.16;49.96;100982.81;5077800;27;45276;-61
2022/06/15 01:18:37;;;;;;;;;9.67;8.67;;;;;20.13;49.78;100983.94;5077477;28;45440;-61
2022/06/15 01:21:09;;;;;;;;;10.00;9.33;;;;;20.13;49.50;100977.69;5076170;28;45237;-62
2022/06/15 01:24:06;;;;;;;;;7.00;6.00;;;;;20.09;49.91;100978.97;5079165;27;45282;-61
2022/06/15 01:27:04;;;;;;;;;6.00;6.00;;;;;20.06;50.50;100976.53;5077893;27;45505;-63
2022/06/15 01:29:33;;;;;;;;;6.67;6.67;;;;;20.05;50.44;100978.34;5076110;28;45416;-61
2022/06/15 01:32:09;;;;;;;;;7.67;7.33;;;;;19.97;50.42;100981.75;5075167;27;45539;-61
2022/06/15 01:34:55;;;;;;;;;7.33;7.00;;;;;19.97;50.36;100979.06;5078394;27;45234;-60
2022/06/15 01:38:01;;;;;;;;;6.00;6.00;;;;;19.91;50.51;100970.66;5078973;27;45493;-62
2022/06/15 01:40:51;;;;;;;;;6.67;6.67;;;;;19.84;50.95;100962.25;5074028;27;45392;-64
2022/06/15 01:43:22;;;;;;;;;7.00;7.00;;;;;19.84;50.79;100973.06;5079111;27;45263;-61
2022/06/15 01:45:49;;;;;;;;;6.00;6.00;;;;;19.84;50.82;100964.09;5074974;28;46025;-65
2022/06/15 01:48:17;;;;;;;;;7.00;7.00;;;;;19.81;50.93;100970.63;5078505;27;45488;-60
2022/06/15 01:50:51;;;;;;;;;5.33;5.33;;;;;19.77;51.20;100966.47;5076824;27;45376;-61
2022/06/15 01:53:25;;;;;;;;;5.00;2.00;;;;;19.71;51.82;100967.88;5078778;27;45439;-62
2022/06/15 01:56:01;;;;;;;;;6.00;6.00;;;;;19.68;51.81;100956.53;5078682;27;45529;-60
2022/06/15 01:58:30;;;;;;;;;5.33;5.33;;;;;19.64;51.72;100963.16;5078549;27;45338;-60
2022/06/15 02:01:07;;;;;;;;;7.33;7.33;;;;;19.60;51.84;100954.47;5075938;27;45933;-62
2022/06/15 02:03:41;;;;;;;;;9.67;7.67;;;;;19.58;51.61;100961.00;5077810;27;45196;-61
2022/06/15 02:06:26;;;;;;;;;6.67;6.67;;;;;19.58;52.26;100951.06;5076538;27;46487;-63
2022/06/15 02:09:03;;;;;;;;;8.33;8.33;;;;;19.51;52.50;100954.41;5079071;27;45504;-62
2022/06/15 02:11:36;;;;;;;;;8.00;8.00;;;;;19.49;52.24;100956.38;5078458;28;45380;-62
2022/06/15 02:14:16;;;;;;;;;6.33;6.33;;;;;19.47;52.46;100947.56;5077666;27;45643;-64
2022/06/15 02:16:47;;;;;;;;;9.67;8.00;;;;;19.39;52.56;100943.69;5110603;27;46231;-66
2022/06/15 02:19:17;;;;;;;;;7.33;7.33;;;;;19.37;52.46;100937.59;5077903;27;45325;-64
2022/06/15 02:21:48;;;;;;;;;8.00;8.00;;;;;19.40;52.75;100947.25;5077642;27;45446;-64
2022/06/15 02:24:17;;;;;;;;;9.00;8.33;;;;;19.44;52.82;100948.69;5077987;27;45639;-63
2022/06/15 02:26:43;;;;;;;;;7.00;7.00;;;;;19.41;52.75;100938.19;5076517;27;45404;-65
2022/06/15 02:29:23;;;;;;;;;7.00;7.00;;;;;19.47;52.74;100950.28;5077177;27;45539;-62
2022/06/15 02:31:49;;;;;;;;;9.00;8.00;;;;;19.47;52.66;100944.88;5078693;27;45296;-64
2022/06/15 02:34:14;;;;;;;;;9.33;7.67;;;;;19.37;52.81;100953.75;5078342;27;45219;-64
2022/06/15 02:36:40;;;;;;;;;9.00;9.00;;;;;19.35;53.09;100944.09;5077694;27;45456;-58
2022/06/15 02:39:10;;;;;;;;;6.33;6.33;;;;;19.31;53.09;100943.53;5077519;27;45594;-62
2022/06/15 02:41:35;;;;;;;;;8.00;8.00;;;;;19.27;53.55;100935.81;5074135;28;45462;-66
2022/06/15 02:44:04;;;;;;;;;10.00;7.00;;;;;19.24;53.36;100942.34;5078266;27;45333;-63
2022/06/15 02:46:33;;;;;;;;;9.00;9.00;;;;;19.23;53.70;100940.63;5077868;27;45439;-62
2022/06/15 02:48:59;;;;;;;;;8.33;7.67;;;;;19.24;53.68;100939.63;5078015;27;45431;-64
2022/06/15 02:51:31;;;;;;;;;9.33;8.33;;;;;19.19;53.25;100932.94;5077861;27;45192;-62
2022/06/15 02:54:00;;;;;;;;;7.33;7.00;;;;;19.16;54.21;100931.38;5077962;27;45360;-60
2022/06/15 02:56:28;;;;;;;;;9.00;8.00;;;;;19.11;54.41;100939.00;5072447;28;45318;-60
2022/06/15 02:58:57;;;;;;;;;7.67;7.67;;;;;19.10;54.00;100940.84;5076055;27;45222;-61
2022/06/15 03:01:24;;;;;;;;;4.67;4.67;;;;;19.13;53.86;100940.56;5075965;28;45488;-59
2022/06/15 03:03:50;;;;;;;;;7.00;7.00;;;;;19.14;54.16;100936.91;5073173;27;45401;-60
2022/06/15 03:06:17;;;;;;;;;8.67;6.00;;;;;19.13;54.04;100939.72;5089013;27;46411;-63
2022/06/15 03:08:43;;;;;;;;;8.33;6.00;;;;;19.10;54.39;100940.84;5076938;27;45423;-66
2022/06/15 03:11:09;;;;;;;;;7.00;7.00;;;;;19.08;54.03;100941.97;5075331;27;45339;-62
2022/06/15 03:13:35;;;;;;;;;7.00;7.00;;;;;19.09;54.22;100941.81;5074261;28;45319;-60
2022/06/15 03:16:02;;;;;;;;;6.67;6.67;;;;;19.04;54.21;100935.13;5067352;28;46608;-61
2022/06/15 03:18:30;;;;;;;;;8.00;8.00;;;;;19.06;54.19;100950.19;5077197;27;45404;-60
2022/06/15 03:20:57;;;;;;;;;8.67;8.67;;;;;19.04;54.15;100951.31;5074847;27;45516;-62
2022/06/15 03:23:23;;;;;;;;;10.33;8.00;;;;;18.97;54.55;100947.41;5077495;27;45512;-64
2022/06/15 03:25:56;;;;;;;;;8.33;8.33;;;;;19.01;54.65;100957.81;5076160;27;45259;-65
2022/06/15 03:28:22;;;;;;;;;9.00;7.00;;;;;18.98;54.55;100958.06;5077165;27;45449;-66
2022/06/15 03:30:49;;;;;;;;;8.00;8.00;;;;;18.89;55.04;100952.63;5072575;27;45323;-61
2022/06/15 03:33:14;;;;;;;;;12.33;8.67;;;;;18.83;55.30;100954.84;5055916;28;45247;-63
2022/06/15 03:35:41;;;;;;;;;8.33;8.00;;;;;18.78;55.53;100954.38;5057807;28;45498;-61
2022/06/15 03:38:08;;;;;;;;;7.33;7.33;;;;;18.70;55.47;100948.78;5092951;27;45377;-63
2022/06/15 03:40:36;;;;;;;;;9.00;7.00;;;;;18.67;55.35;100949.03;5075036;27;45409;-66
2022/06/15 03:43:01;;;;;;;;;10.67;9.33;;;;;18.65;55.69;100953.72;5057074;28;45350;-64
2022/06/15 03:45:28;;;;;;;;;12.33;7.33;;;;;18.62;55.94;100951.25;5095776;27;48024;-64
2022/06/15 03:47:55;;;;;;;;;10.33;8.00;;;;;18.64;55.88;100954.69;5076830;27;45518;-63
2022/06/15 03:50:23;;;;;;;;;8.67;5.67;;;;;18.61;55.87;100949.50;5074665;27;45594;-65
2022/06/15 03:52:48;;;;;;;;;9.33;9.33;;;;;18.67;55.64;100954.44;5077200;27;45345;-60
2022/06/15 03:55:14;;;;;;;;;9.00;8.00;;;;;18.69;55.33;100949.75;5075217;27;46306;-63
2022/06/15 03:57:39;;;;;;;;;11.00;7.00;;;;;18.74;55.52;100955.59;5076655;27;45425;-62
2022/06/15 04:00:07;;;;;;;;;7.33;7.33;;;;;18.74;55.62;100949.38;5075775;27;45578;-59
2022/06/15 04:02:32;;;;;;;;;8.33;8.00;;;;;18.76;55.37;100950.97;5076214;27;45576;-61
2022/06/15 04:04:58;;;;;;;;;9.00;9.00;;;;;18.79;55.06;100944.47;5075778;27;45929;-63
2022/06/15 04:10:27;;;;;;;;;13.00;8.67;;;;;18.73;55.68;100943.13;5073466;28;45902;-63
2022/06/15 04:12:52;;;;;;;;;10.00;7.33;;;;;18.70;55.34;100947.91;5074570;28;45604;-64
2022/06/15 04:15:18;;;;;;;;;7.67;7.67;;;;;18.73;55.55;100953.03;5073351;28;46790;-64
2022/06/15 04:17:44;;;;;;;;;10.33;7.33;;;;;18.70;55.30;100950.63;5075756;27;45496;-66
2022/06/15 04:20:33;;;;;;;;;12.00;10.00;;;;;18.71;55.67;100955.88;5091018;27;45396;-65
2022/06/15 04:23:20;;;;;;;;;7.00;6.33;;;;;18.72;55.38;100951.34;5077007;28;45536;-67
2022/06/15 04:25:58;;;;;;;;;9.00;7.33;;;;;18.71;55.59;100941.56;5055441;28;45830;-64
2022/06/15 04:28:26;;;;;;;;;9.00;9.00;;;;;18.74;55.87;100944.84;5057787;27;45910;-66
2022/06/15 04:30:52;;;;;;;;;10.00;9.33;;;;;18.75;55.18;100941.19;5074692;27;45482;-62
2022/06/15 04:33:17;;;;;;;;;9.33;9.33;;;;;18.73;55.69;100948.50;5075165;27;45528;-61
2022/06/15 04:35:44;;;;;;;;;12.33;9.67;;;;;18.74;55.41;100954.75;5073407;27;46439;-63
2022/06/15 04:38:11;;;;;;;;;9.67;7.00;;;;;18.64;55.21;100954.69;5074173;27;45280;-63
2022/06/15 04:40:37;;;;;;;;;13.00;11.67;;;;;18.68;55.95;100960.69;5073424;27;45326;-61
2022/06/15 04:43:05;;;;;;;;;8.00;8.00;;;;;18.68;56.03;100957.97;5090753;27;45475;-64
2022/06/15 04:45:30;;;;;;;;;11.00;10.33;;;;;18.64;56.21;100954.69;5074349;27;45341;-62
2022/06/15 04:47:56;;;;;;;;;10.00;10.00;;;;;18.61;55.69;100959.44;5075769;27;45327;-61
2022/06/15 04:50:21;;;;;;;;;8.00;8.00;;;;;18.65;56.04;100967.19;5074318;27;45412;-64
2022/06/15 04:52:46;;;;;;;;;13.33;9.33;;;;;18.57;56.34;100958.84;5076285;27;45427;-63
2022/06/15 04:55:21;;;;;;;;;9.67;7.00;;;;;18.53;56.37;100969.03;5072828;27;45568;-65
2022/06/15 04:57:48;;;;;;;;;9.67;7.33;;;;;18.45;56.72;100963.41;5073820;28;45426;-65
2022/06/15 05:00:17;;;;;;;;;11.00;9.00;;;;;18.47;56.42;100965.97;5071430;27;45517;-66
2022/06/15 05:02:44;;;;;;;;;8.67;8.67;;;;;18.51;56.42;100968.31;5075729;27;45571;-63
2022/06/15 05:05:09;;;;;;;;;10.67;6.33;;;;;18.51;56.42;100967.44;5073343;28;46783;-68
2022/06/15 05:07:35;;;;;;;;;9.67;9.67;;;;;18.52;56.32;100971.84;5074477;27;45372;-63
2022/06/15 05:10:01;;;;;;;;;10.67;9.67;;;;;18.56;56.30;100971.44;5075632;27;45666;-65
2022/06/15 05:12:26;;;;;;;;;12.67;11.00;;;;;18.56;56.56;100967.91;5073816;27;45581;-67
2022/06/15 05:14:51;;;;;;;;;9.00;9.00;;;;;18.51;56.25;100970.16;5073599;27;47754;-65
2022/06/15 05:17:22;;;;;;;;;10.33;10.33;;;;;18.56;56.38;100962.53;5070390;28;45459;-69
2022/06/15 05:19:48;;;;;;;;;13.33;10.67;;;;;18.61;56.27;100965.66;5073034;27;45485;-70
2022/06/15 05:22:14;;;;;;;;;11.00;8.00;;;;;18.68;55.74;100972.31;5073586;27;45323;-70
2022/06/15 05:24:39;;;;;;;;;9.33;9.33;;;;;18.75;55.63;100962.72;5074448;27;45352;-69
2022/06/15 05:27:05;;;;;;;;;9.00;9.00;;;;;18.76;55.44;100974.38;5072547;27;45510;-67
2022/06/15 05:29:33;;;;;;;;;11.67;8.00;;;;;18.76;55.82;100969.84;5072300;27;45358;-64
2022/06/15 05:31:59;;;;;;;;;9.00;9.00;;;;;18.71;55.68;100966.66;5072477;28;45407;-58
2022/06/15 05:34:25;;;;;;;;;11.67;11.67;;;;;18.77;55.35;100976.94;5069553;27;45938;-61
2022/06/15 05:36:50;;;;;;;;;12.00;10.00;;;;;18.80;55.53;100968.56;5076474;27;45318;-66
2022/06/15 05:39:16;;;;;;;;;9.67;9.67;;;;;18.85;55.64;100969.03;5077550;27;45344;-63
2022/06/15 05:41:42;;;;;;;;;13.00;9.33;;;;;18.92;55.29;100973.91;5078273;27;45721;-60
2022/06/15 05:44:12;;;;;;;;;15.33;11.00;;;;;18.96;55.43;100969.97;5076435;27;45970;-61
2022/06/15 05:46:39;;;;;;;;;11.00;11.00;;;;;19.02;55.18;100969.47;5075770;27;45824;-62
2022/06/15 05:49:05;;;;;;;;;14.00;9.33;;;;;19.02;55.28;100970.31;5072029;28;45517;-63
2022/06/15 05:51:31;;;;;;;;;13.33;11.33;;;;;19.06;54.72;100969.06;5075893;28;45669;-61
2022/06/15 05:53:57;;;;;;;;;13.00;10.67;;;;;19.01;55.06;100967.72;5078343;27;47048;-62
2022/06/15 05:56:23;;;;;;;;;15.00;11.67;;;;;19.10;54.98;100969.63;5078242;27;45431;-65
2022/06/15 05:58:50;;;;;;;;;13.00;9.00;;;;;19.16;54.95;100963.75;5078483;27;45289;-63
2022/06/15 06:01:33;;;;;;;;;13.00;12.00;;;;;19.21;54.59;100969.56;5094235;27;45427;-65
2022/06/15 06:03:59;;;;;;;;;11.67;10.67;;;;;19.24;54.62;100981.94;5058513;28;46502;-63
2022/06/15 06:06:25;;;;;;;;;14.00;12.33;;;;;19.20;55.48;100980.50;5067017;28;45444;-57
2022/06/15 06:08:52;;;;;;;;;11.00;10.33;;;;;19.19;55.00;100985.03;5077411;27;45334;-52
2022/06/15 06:11:19;;;;;;;;;10.67;9.33;;;;;19.19;54.92;100984.19;5076240;27;45406;-51
2022/06/15 06:13:45;;;;;;;;;8.67;8.67;;;;;19.19;54.98;100986.88;5079864;27;45556;-50
2022/06/15 06:16:11;;;;;;;;;11.33;8.67;;;;;19.22;54.91;100986.59;5073843;27;45375;-61
2022/06/15 06:18:37;;;;;;;;;20.33;16.33;;;;;19.27;54.43;100982.53;5072350;27;45473;-63
2022/06/15 06:21:05;;;;;;;;;14.33;14.00;;;;;19.26;54.59;100970.03;5073189;27;45431;-61
2022/06/15 06:23:34;;;;;;;;;12.67;11.33;;;;;19.28;54.38;100970.78;5067836;27;45536;-62
2022/06/15 06:26:01;;;;;;;;;10.00;10.00;;;;;19.38;54.66;100974.34;5064039;27;45397;-62
2022/06/15 06:28:33;;;;;;;;;6.67;5.33;;;;;19.47;54.19;100969.16;5078146;27;45168;-62
2022/06/15 06:31:01;;;;;;;;;11.00;11.00;;;;;19.49;54.18;100961.78;5075540;28;45531;-61
2022/06/15 06:33:32;;;;;;;;;15.67;12.67;;;;;19.55;53.80;100966.69;5070340;27;45531;-63
2022/06/15 06:36:02;;;;;;;;;12.67;11.33;;;;;19.60;53.57;100975.22;5074915;27;45671;-62
2022/06/15 06:38:27;;;;;;;;;10.00;10.00;;;;;19.62;53.55;100978.63;5082707;27;45426;-63
2022/06/15 06:40:55;;;;;;;;;9.33;8.33;;;;;19.70;53.30;100973.44;5073699;27;45844;-61
2022/06/15 06:43:22;;;;;;;;;12.67;10.00;;;;;19.76;52.80;100970.16;5076746;27;46183;-63
2022/06/15 06:45:48;;;;;;;;;13.67;11.00;;;;;19.80;53.03;100977.03;5075104;27;45539;-62
2022/06/15 06:48:14;;;;;;;;;12.67;11.00;;;;;19.85;52.99;100977.47;5075778;27;45368;-60
2022/06/15 06:50:41;;;;;;;;;10.67;10.00;;;;;20.01;52.96;100983.19;5079724;27;45788;-60
2022/06/15 06:53:12;;;;;;;;;11.67;11.00;;;;;20.14;52.42;100979.41;5077659;27;46432;-61
2022/06/15 06:55:38;;;;;;;;;13.00;13.00;;;;;20.24;51.87;100974.88;5077410;27;45461;-60
2022/06/15 06:58:04;;;;;;;;;14.00;12.67;;;;;20.36;51.70;100984.56;5075788;27;45718;-58
2022/06/15 07:00:32;;;;;;;;;12.67;11.33;;;;;20.45;51.74;100983.78;5073876;27;45446;-59
2022/06/15 07:02:59;;;;;;;;;16.00;11.00;;;;;20.54;51.56;100976.66;5074548;27;46179;-62
2022/06/15 07:05:24;;;;;;;;;10.00;7.00;;;;;20.59;51.09;100977.94;5077182;27;45354;-62
2022/06/15 07:07:50;;;;;;;;;16.00;15.00;;;;;20.71;50.66;100973.28;5076554;27;45579;-62
2022/06/15 07:10:16;;;;;;;;;15.67;11.67;;;;;20.76;50.67;100986.34;5070728;27;45478;-62
2022/06/15 07:12:42;;;;;;;;;10.67;9.00;;;;;20.83;50.59;100977.53;5074706;27;46290;-61
2022/06/15 07:15:13;;;;;;;;;11.67;10.67;;;;;20.83;50.42;100974.84;5075921;27;45371;-62
2022/06/15 07:17:39;;;;;;;;;12.00;9.67;;;;;20.90;50.17;100984.06;5087870;27;45412;-62
2022/06/15 07:20:05;;;;;;;;;13.67;13.00;;;;;21.00;50.14;100984.06;5081291;27;45232;-60
2022/06/15 07:22:30;;;;;;;;;12.67;12.67;;;;;21.03;49.63;100972.09;5075060;27;47451;-61
2022/06/15 07:24:56;;;;;;;;;12.33;12.00;;;;;21.13;49.86;100979.22;5075171;28;45474;-63
2022/06/15 07:27:23;;;;;;;;;10.67;10.67;;;;;21.17;49.23;100979.75;5076910;28;45456;-60
2022/06/15 07:29:49;;;;;;;;;12.00;10.00;;;;;21.22;49.00;100980.16;5077353;28;45393;-62
2022/06/15 07:32:16;;;;;;;;;12.00;10.00;;;;;21.30;49.02;100993.88;5089133;27;46183;-61
2022/06/15 07:34:43;;;;;;;;;12.67;11.33;;;;;21.36;48.73;100995.16;5071942;27;45506;-62
2022/06/15 07:37:10;;;;;;;;;12.33;11.00;;;;;21.43;48.51;100990.84;5073236;27;45376;-62
2022/06/15 07:39:36;;;;;;;;;17.00;11.67;;;;;21.53;48.77;100996.25;5072633;28;45514;-61
2022/06/15 07:42:04;;;;;;;;;12.00;10.33;;;;;21.55;48.23;100994.25;5075230;27;46061;-59
2022/06/15 07:44:29;;;;;;;;;10.00;10.00;;;;;21.65;48.22;100995.91;5076711;27;45337;-61
2022/06/15 07:49:55;;;;;;;;;9.67;9.67;;;;;21.81;47.78;100989.00;5077081;28;45400;-62
2022/06/15 07:52:43;;;;;;;;;9.00;9.00;;;;;21.90;47.41;100988.13;5068554;27;45550;-61
2022/06/15 07:55:11;;;;;;;;;10.67;10.00;;;;;22.00;47.46;100994.31;5068157;27;45535;-63
2022/06/15 07:57:37;;;;;;;;;10.00;10.00;;;;;22.06;47.69;100996.50;5076826;27;45235;-61
2022/06/15 08:00:08;;;;;;;;;13.33;9.67;;;;;22.11;46.96;100994.16;5086106;27;45631;-61
2022/06/15 08:02:33;;;;;;;;;10.00;10.00;;;;;22.15;46.65;100986.63;5096517;27;45488;-64
2022/06/15 08:04:59;;;;;;;;;10.00;9.00;;;;;22.27;47.20;100991.69;5093524;27;45439;-66
2022/06/15 08:07:25;;;;;;;;;12.67;12.00;;;;;22.32;46.40;100977.66;5069059;28;45601;-63
2022/06/15 08:09:50;;;;;;;;;11.33;10.67;;;;;22.37;46.50;100981.59;5073627;28;45588;-61
2022/06/15 08:12:16;;;;;;;;;11.00;11.00;;;;;22.49;46.37;100981.38;5075646;27;45176;-62
2022/06/15 08:14:48;;;;;;;;;12.00;9.00;;;;;22.53;45.93;100974.69;5071601;28;45401;-60
2022/06/15 08:17:28;;;;;;;;;9.67;9.67;;;;;22.63;45.88;100980.84;5074421;27;45378;-60
2022/06/15 08:20:18;;;;;;;;;11.00;11.00;;;;;22.77;45.79;100979.44;5070952;28;45721;-59
2022/06/15 08:22:47;;;;;;;;;10.67;10.67;;;;;22.87;44.52;100978.41;5075227;28;46189;-63
2022/06/15 08:25:17;;;;;;;;;21.00;19.00;;;;;23.14;45.21;100976.59;5076599;28;45338;-61
2022/06/15 08:27:43;;;;;;;;;10.67;10.67;;;;;23.46;44.10;100973.25;5072934;27;46075;-62
2022/06/15 08:30:10;;;;;;;;;10.00;10.00;;;;;23.71;42.23;100960.72;5076011;27;45671;-62
2022/06/15 08:32:38;;;;;;;;;10.25;10.25;;;;;23.95;41.70;100968.94;5070013;27;45528;-60
2022/06/15 08:35:05;;;;;;;;;10.00;8.25;;;;;24.31;41.36;100968.75;5067440;28;45373;-60
2022/06/15 08:37:33;;;;;;;;;13.00;10.25;;;;;24.73;40.34;100956.94;5068992;27;45385;-62
2022/06/15 08:40:00;;;;;;;;;8.00;8.00;;;;;25.20;41.04;100966.16;5071276;27;45656;-60
2022/06/15 08:42:44;;;;;;;;;10.00;10.00;;;;;25.60;39.77;100975.25;5075310;28;46079;-59
2022/06/15 08:45:12;;;;;;;;;19.00;17.25;;;;;25.94;38.84;100968.72;5075610;27;45457;-62
2022/06/15 08:48:02;;;;;;;;;18.00;11.50;;;;;26.10;37.58;100969.50;5072197;27;45470;-61
2022/06/15 08:50:38;;;;;;;;;10.50;10.50;;;;;26.23;37.76;100960.75;5067629;27;45493;-59
2022/06/15 08:53:38;;;;;;;;;11.75;10.75;;;;;26.50;38.81;100964.00;5063543;27;45409;-60
2022/06/15 08:56:10;;;;;;;;;10.60;8.00;;;;;26.95;36.51;100964.00;5062917;27;45421;-61
2022/06/15 08:58:54;;;;;;;;;10.75;10.75;;;;;27.18;36.14;100958.53;5075357;27;45404;-61
2022/06/15 09:01:32;;;;;;;;;8.25;8.00;;;;;27.61;36.38;100959.66;5073086;27;45545;-63
2022/06/15 09:04:14;;;;;;;;;12.75;9.50;;;;;28.10;35.84;100953.59;5070998;27;46385;-63
2022/06/15 09:06:48;;;;;;;;;6.80;6.80;;;;;28.42;34.10;100948.75;5062985;28;45413;-61
2022/06/15 09:09:45;;;;;;;;;7.40;7.40;;;;;28.62;33.81;100952.50;5067386;28;45890;-63
2022/06/15 09:12:53;;;;;;;;;12.60;9.00;;;;;28.88;33.87;100946.47;5061535;28;45433;-58
2022/06/15 09:15:42;;;;;;;;;9.00;9.00;;;;;29.40;32.63;100952.56;5077173;27;46281;-62
2022/06/15 09:18:14;;;;;;;;;12.20;10.60;;;;;29.70;31.58;100962.31;5074403;27;45526;-62
2022/06/15 09:20:47;;;;;;;;;9.80;9.00;;;;;30.04;30.33;100957.81;5077480;28;45285;-61
2022/06/15 09:23:27;;;;;;;;;8.20;8.20;;;;;30.34;30.97;100958.38;5076596;27;45476;-62
2022/06/15 09:26:01;;;;;;;;;8.00;8.00;;;;;30.80;30.72;100950.28;5070911;27;46079;-59
2022/06/15 09:28:40;;;;;;;;;7.20;6.60;;;;;31.39;30.03;100952.22;5074766;27;45788;-64
2022/06/15 09:31:29;;;;;;;;;9.20;9.20;;;;;31.97;28.26;100960.53;5078994;27;45369;-64
2022/06/15 09:33:59;;;;;;;;;6.60;6.60;;;;;31.98;28.95;100962.22;5090600;27;45344;-62
2022/06/15 09:36:31;;;;;;;;;8.80;8.80;;;;;31.95;27.61;100962.66;5073786;28;46022;-59
2022/06/15 09:38:57;;;;;;;;;11.00;10.80;;;;;31.27;27.89;100959.41;5078818;28;45481;-56
2022/06/15 09:41:55;;;;;;;;;10.40;8.80;;;;;31.31;29.34;100958.75;5072826;27;45566;-62
2022/06/15 09:44:58;;;;;;;;;11.40;8.00;;;;;30.83;28.54;100960.84;5069107;27;45504;-61
2022/06/15 09:48:00;;;;;;;;;11.40;9.60;;;;;30.73;28.59;100952.16;5076130;28;45970;-63
2022/06/15 09:50:35;;;;;;;;;11.60;10.40;;;;;31.20;29.99;100953.06;5074052;27;45674;-60
2022/06/15 09:53:09;;;;;;;;;7.60;7.60;;;;;31.76;29.19;100947.06;5074422;27;45657;-60
2022/06/15 09:55:51;;;;;;;;;8.80;8.40;;;;;32.13;28.31;100943.53;5074672;27;45348;-60
2022/06/15 09:58:19;;;;;;;;;6.60;6.60;;;;;32.60;28.41;100949.66;5059528;28;45812;-62
2022/06/15 10:00:49;;;;;;;;;6.60;6.60;;;;;32.80;27.00;100944.84;5075756;27;45489;-58
2022/06/15 10:03:28;;;;;;;;;9.00;8.00;;;;;32.65;26.21;100938.81;5073464;28;45568;-61
2022/06/15 10:05:58;;;;;;;;;9.00;9.00;;;;;32.51;27.01;100950.97;5066473;28;45356;-61
2022/06/15 10:08:23;;;;;;;;;10.20;8.60;;;;;32.69;27.06;100950.25;5075680;27;46131;-61
2022/06/15 10:10:51;;;;;;;;;7.00;7.00;;;;;33.06;25.97;100942.97;5072644;27;45366;-62
2022/06/15 10:13:19;;;;;;;;;9.60;8.00;;;;;33.42;24.85;100942.25;5109508;27;45725;-63
2022/06/15 10:15:44;;;;;;;;;10.40;8.80;;;;;33.58;25.09;100946.31;5071712;28;45698;-61
2022/06/15 10:18:13;;;;;;;;;9.00;9.00;;;;;33.41;24.83;100946.91;5071697;27;46248;-63
2022/06/15 10:20:40;;;;;;;;;12.00;8.60;;;;;33.50;26.00;100954.91;5108925;27;45548;-59
2022/06/15 10:23:22;;;;;;;;;8.40;7.60;;;;;33.40;24.54;100950.75;5075246;27;45381;-62
2022/06/15 10:25:53;;;;;;;;;7.20;7.20;;;;;33.33;25.40;100949.91;5065847;27;45555;-65
2022/06/15 10:28:26;;;;;;;;;7.40;6.60;;;;;33.26;25.70;100949.16;5075225;27;46421;-61
2022/06/15 10:30:58;;;;;;;;;11.60;9.80;;;;;33.26;25.66;100956.56;5076887;28;45560;-60
2022/06/15 10:33:33;;;;;;;;;12.20;11.40;;;;;33.11;25.85;100957.78;5075859;28;45504;-61
2022/06/15 10:35:58;;;;;;;;;9.40;9.40;;;;;32.93;25.76;100954.09;5074069;27;45543;-63
2022/06/15 10:38:26;;;;;;;;;11.00;9.00;;;;;32.78;26.28;100951.63;5075175;27;45406;-62
2022/06/15 10:41:45;;;;;;;;;8.80;8.80;;;;;32.38;26.16;100953.81;5076438;27;46883;-62
2022/06/15 10:43:49;;;;;;;;;8.00;8.00;;;;;31.84;26.72;100938.59;5075625;27;45568;-60
2022/06/15 10:46:16;;;;;;;;;5.00;5.00;;;;;31.60;26.63;100938.19;5076504;27;45562;-63
2022/06/15 10:48:50;;;;;;;;;16.60;11.20;;;;;31.35;27.42;100943.53;5074807;27;45526;-66
2022/06/15 10:51:33;;;;;;;;;8.40;7.00;;;;;31.09;28.30;100949.84;5074947;27;45441;-64
2022/06/15 10:54:20;;;;;;;;;8.40;7.60;;;;;30.73;28.82;100927.44;5071735;27;45503;-66
2022/06/15 11:02:06;;;;;;;;;9.20;8.40;;;;;30.50;28.47;100952.53;5077276;27;45495;-64
2022/06/15 11:02:29;;;;;;;;;6.80;6.80;;;;;30.26;29.48;100944.88;5077535;28;45447;-66
2022/06/15 11:05:11;;;;;;;;;10.60;8.60;;;;;30.12;29.00;100946.72;5077618;27;45417;-62
2022/06/15 11:07:45;;;;;;;;;10.60;8.00;;;;;29.99;29.55;100957.59;5077519;27;45457;-65
2022/06/15 11:10:41;;;;;;;;;8.80;6.80;;;;;29.78;29.72;100940.19;5072783;27;46681;-64
2022/06/15 11:13:29;;;;;;;;;7.20;7.20;;;;;29.82;29.22;100955.22;5056991;28;45444;-65
2022/06/15 11:18:44;;;;;;;;;10.60;10.60;;;;;29.81;29.18;100950.75;5056977;28;45447;-66
2022/06/15 11:21:15;;;;;;;;;10.60;8.60;;;;;29.78;29.22;100950.31;5056829;28;46178;-65
2022/06/15 11:24:04;;;;;;;;;10.40;8.20;;;;;29.73;29.74;100952.81;5070674;27;45531;-67
2022/06/15 11:26:55;;;;;;;;;4.80;4.80;;;;;29.71;29.82;100953.03;5074237;28;45454;-68
2022/06/15 11:29:43;;;;;;;;;8.60;7.80;;;;;29.68;30.11;100956.16;5076241;27;45547;-71
2022/06/15 11:32:40;;;;;;;;;7.80;7.80;;;;;29.61;30.41;100938.84;5076125;27;45407;-67
2022/06/15 11:35:19;;;;;;;;;8.00;6.20;;;;;29.66;30.15;100945.41;5081813;27;45213;-64
2022/06/15 11:37:55;;;;;;;;;9.00;9.00;;;;;29.74;30.25;100947.13;5073392;27;45506;-60
2022/06/15 11:40:26;;;;;;;;;11.80;9.80;;;;;29.81;29.84;100947.16;5070973;27;45659;-65
2022/06/15 11:42:53;;;;;;;;;11.80;11.80;;;;;29.87;29.41;100946.38;5071422;28;46053;-62
2022/06/15 11:45:23;;;;;;;;;7.40;5.80;;;;;29.71;29.71;100938.47;5072147;27;45426;-64
2022/06/15 11:48:07;;;;;;;;;11.20;9.20;;;;;29.70;29.53;100940.38;5077600;27;45538;-63
2022/06/15 11:50:51;;;;;;;;;9.60;8.00;;;;;29.76;30.16;100939.56;5071117;27;45539;-64